Unicom:                    122.8

AWOS:                  118.275

Elevation           1458’ MSL

TPA:                   2500’ MSL

06/24:         5003’ L   75’ W

PAPI:       06/Left     24/Left

(Operate lights on unicom freq.)

Traffic Pattern: Left

Beacon: Sunset to Sunrise

Windsock: yes, lighted

Segmented Circle: No

 

Cleveland Center: 126.72/291.65

FSS: Altoona

[Source: ADDS]
METAR
KFKL 080730Z AUTO VRB06KT 1 3/4SM BR FEW002 OVC037 02/01 A2985 RMK AO2 RAB15E25 P0000 FZRANO =
KFKL 080739Z 0808/0906 29003KT 2SM -SHRASN BR BKN030 FM081000 28005KT 4SM -SHRASN OVC015 FM081200 30007KT P6SM OVC007 FM081800 30007KT P6SM OVC025 FM082100 28006KT P6SM OVC050 FM090000 25003KT P6SM BKN050
TAF
KFKL 080739Z 0808/0906 29003KT 2SM -SHRASN BR BKN030 FM081000 28005KT 4SM -SHRASN OVC015 FM081200 30007KT P6SM OVC007 FM081800 30007KT P6SM OVC025 FM082100 28006KT P6SM OVC050 FM090000 25003KT P6SM BKN050 =
[Source: ADDS]
METAR
KDUJ 080653Z AUTO 00000KT 7SM FEW048 SCT060 01/M01 A2982 RMK AO2 SLP108 T00061006 =
KDUJ 080615Z 0806/0906 00000KT 2SM BR BKN050 FM081000 29005KT 2SM -SHRASN BR OVC015 FM081200 30005KT 5SM -SHRA BKN007 FM081500 29009KT P6SM VCSH BKN015 FM082100 29011KT P6SM OVC050 FM090100 29004KT P6SM BKN050
TAF
KDUJ 080615Z 0806/0906 00000KT 2SM BR BKN050 FM081000 29005KT 2SM -SHRASN BR OVC015 FM081200 30005KT 5SM -SHRA BKN007 FM081500 29009KT P6SM VCSH BKN015 FM082100 29011KT P6SM OVC050 FM090100 29004KT P6SM BKN050 =

Flight Training.

                                    - 


                                                                                                      Bill Guth - CFI/ CFII/MEI

                                                                                                              814-229-5974

                                                                                                             Facebook Page


Practice Test Questions:                   http://www.exams4pilots.org/           http://www.airsafetyinstitute.org/tol_abortpoint 

                                                             http://www.mypilottests.com/           http://www.sportys.com/studybuddy


Flight Training Videos:                      http://www.rogerdodger.net/flighttraining/home.html

                                                            http://pilottutor.org/                              http://www.123pilot.com/

                                                            http://www.airsafetyinstitute.org/tol_abortpoint